sensor_id;sensor_type;location;lat;lon;timestamp;pressure;altitude;pressure_sealevel;temperature;humidity
59391;BME280;53405;57.012;40.984;2023-03-20T00:02:00;100672.69;;;-1.30;66.82
59391;BME280;53405;57.012;40.984;2023-03-20T00:04:28;100664.53;;;-1.38;68.04
59391;BME280;53405;57.012;40.984;2023-03-20T00:06:55;100652.59;;;-1.57;68.35
59391;BME280;53405;57.012;40.984;2023-03-20T00:09:23;100597.28;;;-1.85;68.14
59391;BME280;53405;57.012;40.984;2023-03-20T00:11:53;100665.69;;;-1.44;68.04
59391;BME280;53405;57.012;40.984;2023-03-20T00:14:22;100661.94;;;-1.38;67.39
59391;BME280;53405;57.012;40.984;2023-03-20T00:16:51;100664.69;;;-1.41;69.07
59391;BME280;53405;57.012;40.984;2023-03-20T00:19:21;100666.75;;;-1.64;69.63
59391;BME280;53405;57.012;40.984;2023-03-20T00:21:56;100661.31;;;-1.91;70.31
59391;BME280;53405;57.012;40.984;2023-03-20T00:24:24;100667.03;;;-2.02;70.73
59391;BME280;53405;57.012;40.984;2023-03-20T00:26:52;100657.19;;;-2.11;71.13
59391;BME280;53405;57.012;40.984;2023-03-20T00:29:21;100666.03;;;-2.15;71.48
59391;BME280;53405;57.012;40.984;2023-03-20T00:31:49;100666.44;;;-2.23;72.64
59391;BME280;53405;57.012;40.984;2023-03-20T00:34:18;100663.91;;;-2.25;72.17
59391;BME280;53405;57.012;40.984;2023-03-20T00:36:46;100658.44;;;-2.19;71.88
59391;BME280;53405;57.012;40.984;2023-03-20T00:39:13;100668.94;;;-2.22;72.30
59391;BME280;53405;57.012;40.984;2023-03-20T00:42:02;100654.22;;;-2.37;72.08
59391;BME280;53405;57.012;40.984;2023-03-20T00:44:34;100667.34;;;-2.42;72.16
59391;BME280;53405;57.012;40.984;2023-03-20T00:47:05;100661.38;;;-2.42;72.43
59391;BME280;53405;57.012;40.984;2023-03-20T00:49:38;100647.66;;;-2.60;72.79
59391;BME280;53405;57.012;40.984;2023-03-20T00:52:06;100655.16;;;-2.73;73.03
59391;BME280;53405;57.012;40.984;2023-03-20T00:54:35;100665.41;;;-2.72;73.88
59391;BME280;53405;57.012;40.984;2023-03-20T00:57:11;100658.69;;;-2.74;74.11
59391;BME280;53405;57.012;40.984;2023-03-20T00:59:53;100638.28;;;-2.96;74.36
59391;BME280;53405;57.012;40.984;2023-03-20T01:02:25;100655.53;;;-2.81;74.29
59391;BME280;53405;57.012;40.984;2023-03-20T01:04:55;100636.16;;;-2.88;74.18
59391;BME280;53405;57.012;40.984;2023-03-20T01:07:24;100646.47;;;-2.88;74.67
59391;BME280;53405;57.012;40.984;2023-03-20T01:09:54;100612.56;;;-3.15;74.81
59391;BME280;53405;57.012;40.984;2023-03-20T01:12:21;100641.69;;;-2.96;74.86
59391;BME280;53405;57.012;40.984;2023-03-20T01:14:53;100634.09;;;-2.99;75.12
59391;BME280;53405;57.012;40.984;2023-03-20T01:17:23;100589.19;;;-3.30;75.17
59391;BME280;53405;57.012;40.984;2023-03-20T01:19:50;100622.16;;;-3.19;74.97
59391;BME280;53405;57.012;40.984;2023-03-20T01:22:18;100636.66;;;-3.16;75.44
59391;BME280;53405;57.012;40.984;2023-03-20T01:24:46;100628.31;;;-3.21;75.66
59391;BME280;53405;57.012;40.984;2023-03-20T01:27:15;100625.03;;;-3.25;76.07
59391;BME280;53405;57.012;40.984;2023-03-20T01:29:44;100634.00;;;-3.32;76.36
59391;BME280;53405;57.012;40.984;2023-03-20T01:32:17;100618.53;;;-3.32;76.44
59391;BME280;53405;57.012;40.984;2023-03-20T01:34:50;100632.53;;;-3.38;76.63
59391;BME280;53405;57.012;40.984;2023-03-20T01:37:26;100628.38;;;-3.40;76.76
59391;BME280;53405;57.012;40.984;2023-03-20T01:39:59;100623.38;;;-3.43;77.13
59391;BME280;53405;57.012;40.984;2023-03-20T01:42:29;100626.75;;;-3.43;77.24
59391;BME280;53405;57.012;40.984;2023-03-20T01:44:56;100576.63;;;-3.72;77.38
59391;BME280;53405;57.012;40.984;2023-03-20T01:47:25;100627.66;;;-3.44;77.47
59391;BME280;53405;57.012;40.984;2023-03-20T01:55:39;100623.28;;;-3.42;78.20
59391;BME280;53405;57.012;40.984;2023-03-20T01:58:14;100631.16;;;-3.45;77.49
59391;BME280;53405;57.012;40.984;2023-03-20T02:00:45;100618.00;;;-3.39;77.62
59391;BME280;53405;57.012;40.984;2023-03-20T02:03:17;100598.94;;;-3.54;77.46
59391;BME280;53405;57.012;40.984;2023-03-20T02:05:58;100607.56;;;-3.55;77.74
59391;BME280;53405;57.012;40.984;2023-03-20T02:08:48;100620.38;;;-3.53;77.83
59391;BME280;53405;57.012;40.984;2023-03-20T02:11:17;100575.41;;;-3.83;77.87
59391;BME280;53405;57.012;40.984;2023-03-20T02:13:45;100621.16;;;-3.51;78.21
59391;BME280;53405;57.012;40.984;2023-03-20T02:16:15;100613.50;;;-3.53;78.59
59391;BME280;53405;57.012;40.984;2023-03-20T02:18:55;100622.31;;;-3.58;78.09
59391;BME280;53405;57.012;40.984;2023-03-20T02:27:07;100601.25;;;-3.67;78.24
59391;BME280;53405;57.012;40.984;2023-03-20T02:35:28;100592.44;;;-3.61;78.50
59391;BME280;53405;57.012;40.984;2023-03-20T02:41:00;100587.63;;;-3.69;78.79
59391;BME280;53405;57.012;40.984;2023-03-20T02:43:48;100596.94;;;-3.66;79.34
59391;BME280;53405;57.012;40.984;2023-03-20T02:49:29;100594.50;;;-3.69;78.67
59391;BME280;53405;57.012;40.984;2023-03-20T02:52:09;100592.72;;;-3.67;78.84
59391;BME280;53405;57.012;40.984;2023-03-20T02:55:29;100595.22;;;-3.66;79.15
59391;BME280;53405;57.012;40.984;2023-03-20T02:58:20;100593.41;;;-3.64;78.68
59391;BME280;53405;57.012;40.984;2023-03-20T03:03:43;100579.00;;;-3.87;78.06
59391;BME280;53405;57.012;40.984;2023-03-20T03:06:21;100586.41;;;-3.98;78.56
59391;BME280;53405;57.012;40.984;2023-03-20T03:08:54;100589.66;;;-3.94;78.63
59391;BME280;53405;57.012;40.984;2023-03-20T03:11:25;100589.44;;;-3.90;79.08
59391;BME280;53405;57.012;40.984;2023-03-20T03:13:54;100579.41;;;-3.77;78.95
59391;BME280;53405;57.012;40.984;2023-03-20T03:16:27;100570.41;;;-3.86;79.45
59391;BME280;53405;57.012;40.984;2023-03-20T03:19:11;100543.34;;;-4.13;80.18
59391;BME280;53405;57.012;40.984;2023-03-20T03:21:40;100570.47;;;-4.06;81.00
59391;BME280;53405;57.012;40.984;2023-03-20T03:27:22;100562.47;;;-3.81;81.46
59391;BME280;53405;57.012;40.984;2023-03-20T03:29:55;100558.09;;;-3.98;80.83
59391;BME280;53405;57.012;40.984;2023-03-20T03:32:29;100541.34;;;-3.88;80.18
59391;BME280;53405;57.012;40.984;2023-03-20T03:34:58;100510.03;;;-3.97;79.65
59391;BME280;53405;57.012;40.984;2023-03-20T03:37:39;100504.34;;;-4.04;79.27
59391;BME280;53405;57.012;40.984;2023-03-20T03:43:04;100546.28;;;-3.66;79.34
59391;BME280;53405;57.012;40.984;2023-03-20T03:45:38;100529.94;;;-3.65;79.74
59391;BME280;53405;57.012;40.984;2023-03-20T03:48:15;100554.25;;;-3.53;79.76
59391;BME280;53405;57.012;40.984;2023-03-20T03:50:57;100551.41;;;-3.47;79.54
59391;BME280;53405;57.012;40.984;2023-03-20T03:53:34;100550.16;;;-3.57;79.26
59391;BME280;53405;57.012;40.984;2023-03-20T03:56:10;100549.34;;;-3.57;79.51
59391;BME280;53405;57.012;40.984;2023-03-20T03:58:44;100542.06;;;-3.49;79.14
59391;BME280;53405;57.012;40.984;2023-03-20T04:01:15;100556.19;;;-3.39;78.91
59391;BME280;53405;57.012;40.984;2023-03-20T04:03:53;100552.91;;;-3.25;78.94
59391;BME280;53405;57.012;40.984;2023-03-20T04:06:24;100504.97;;;-3.45;78.39
59391;BME280;53405;57.012;40.984;2023-03-20T04:08:52;100546.16;;;-3.10;77.95
59391;BME280;53405;57.012;40.984;2023-03-20T04:11:21;100541.47;;;-3.19;77.58
59391;BME280;53405;57.012;40.984;2023-03-20T04:13:51;100535.72;;;-3.24;77.59
59391;BME280;53405;57.012;40.984;2023-03-20T04:16:20;100500.41;;;-3.40;77.43
59391;BME280;53405;57.012;40.984;2023-03-20T04:18:49;100530.88;;;-3.13;77.76
59391;BME280;53405;57.012;40.984;2023-03-20T04:21:18;100539.31;;;-2.94;78.23
59391;BME280;53405;57.012;40.984;2023-03-20T04:23:45;100544.00;;;-2.84;77.32
59391;BME280;53405;57.012;40.984;2023-03-20T04:26:13;100540.06;;;-2.74;76.77
59391;BME280;53405;57.012;40.984;2023-03-20T04:28:40;100546.72;;;-2.70;77.23
59391;BME280;53405;57.012;40.984;2023-03-20T04:31:26;100535.25;;;-2.64;76.01
59391;BME280;53405;57.012;40.984;2023-03-20T04:34:16;100532.69;;;-2.64;76.11
59391;BME280;53405;57.012;40.984;2023-03-20T04:37:03;100522.78;;;-2.56;75.91
59391;BME280;53405;57.012;40.984;2023-03-20T04:39:46;100489.81;;;-2.67;76.07
59391;BME280;53405;57.012;40.984;2023-03-20T04:42:13;100525.06;;;-2.34;75.77
59391;BME280;53405;57.012;40.984;2023-03-20T04:44:42;100534.00;;;-2.24;76.29
59391;BME280;53405;57.012;40.984;2023-03-20T04:47:09;100489.50;;;-2.61;76.68
59391;BME280;53405;57.012;40.984;2023-03-20T04:49:40;100523.66;;;-2.40;77.12
59391;BME280;53405;57.012;40.984;2023-03-20T04:52:07;100530.81;;;-2.13;76.04
59391;BME280;53405;57.012;40.984;2023-03-20T04:54:38;100528.34;;;-1.98;75.73
59391;BME280;53405;57.012;40.984;2023-03-20T04:57:06;100517.91;;;-2.13;76.51
59391;BME280;53405;57.012;40.984;2023-03-20T04:59:34;100531.91;;;-2.01;76.95
59391;BME280;53405;57.012;40.984;2023-03-20T05:02:01;100523.81;;;-1.79;76.39
59391;BME280;53405;57.012;40.984;2023-03-20T05:04:29;100526.31;;;-1.93;77.03
59391;BME280;53405;57.012;40.984;2023-03-20T05:06:56;100516.56;;;-1.88;75.95
59391;BME280;53405;57.012;40.984;2023-03-20T05:09:31;100525.22;;;-1.73;74.29
59391;BME280;53405;57.012;40.984;2023-03-20T05:12:01;100455.97;;;-2.13;75.26
59391;BME280;53405;57.012;40.984;2023-03-20T05:14:49;100533.19;;;-1.62;76.14
59391;BME280;53405;57.012;40.984;2023-03-20T05:17:35;100529.47;;;-1.42;75.29
59391;BME280;53405;57.012;40.984;2023-03-20T05:20:22;100525.09;;;-1.25;75.46
59391;BME280;53405;57.012;40.984;2023-03-20T05:23:02;100509.13;;;-1.32;74.49
59391;BME280;53405;57.012;40.984;2023-03-20T05:25:47;100526.81;;;-0.96;73.46
59391;BME280;53405;57.012;40.984;2023-03-20T05:28:23;100523.94;;;-1.05;74.56
59391;BME280;53405;57.012;40.984;2023-03-20T05:31:11;100495.78;;;-1.10;73.09
59391;BME280;53405;57.012;40.984;2023-03-20T05:33:53;100521.19;;;-0.74;72.54
59391;BME280;53405;57.012;40.984;2023-03-20T05:36:34;100530.06;;;-0.63;73.77
59391;BME280;53405;57.012;40.984;2023-03-20T05:39:22;100530.91;;;-0.63;73.95
59391;BME280;53405;57.012;40.984;2023-03-20T05:42:08;100536.06;;;-0.34;71.75
59391;BME280;53405;57.012;40.984;2023-03-20T05:44:58;100533.72;;;-0.24;72.57
59391;BME280;53405;57.012;40.984;2023-03-20T05:47:44;100521.41;;;-0.21;71.69
59391;BME280;53405;57.012;40.984;2023-03-20T05:50:24;100532.81;;;-0.23;71.70
59391;BME280;53405;57.012;40.984;2023-03-20T05:53:11;100535.59;;;-0.26;72.68
59391;BME280;53405;57.012;40.984;2023-03-20T05:56:01;100540.69;;;0.03;71.56
59391;BME280;53405;57.012;40.984;2023-03-20T05:58:40;100526.41;;;0.24;71.51
59391;BME280;53405;57.012;40.984;2023-03-20T06:01:31;100526.03;;;0.43;71.40
59391;BME280;53405;57.012;40.984;2023-03-20T06:04:07;100525.22;;;0.43;71.44
59391;BME280;53405;57.012;40.984;2023-03-20T06:06:57;100514.25;;;0.25;71.67
59391;BME280;53405;57.012;40.984;2023-03-20T06:09:24;100516.88;;;0.38;70.09
59391;BME280;53405;57.012;40.984;2023-03-20T06:11:51;100536.03;;;0.62;68.64
59391;BME280;53405;57.012;40.984;2023-03-20T06:14:19;100524.88;;;0.75;68.97
59391;BME280;53405;57.012;40.984;2023-03-20T06:16:54;100523.97;;;1.01;67.57
59391;BME280;53405;57.012;40.984;2023-03-20T06:19:24;100526.75;;;1.24;67.19
59391;BME280;53405;57.012;40.984;2023-03-20T06:21:51;100526.44;;;1.41;67.22
59391;BME280;53405;57.012;40.984;2023-03-20T06:24:20;100465.84;;;1.30;67.05
59391;BME280;53405;57.012;40.984;2023-03-20T06:26:47;100523.81;;;1.54;64.77
59391;BME280;53405;57.012;40.984;2023-03-20T06:29:15;100521.97;;;1.56;66.08
59391;BME280;53405;57.012;40.984;2023-03-20T06:31:43;100515.88;;;1.69;65.93
59391;BME280;53405;57.012;40.984;2023-03-20T06:34:19;100522.97;;;1.67;64.87
59391;BME280;53405;57.012;40.984;2023-03-20T06:36:47;100526.47;;;1.78;65.38
59391;BME280;53405;57.012;40.984;2023-03-20T06:39:19;100517.63;;;1.81;64.19
59391;BME280;53405;57.012;40.984;2023-03-20T06:41:47;100522.13;;;2.03;66.50
59391;BME280;53405;57.012;40.984;2023-03-20T06:44:15;100519.06;;;1.85;63.30
59391;BME280;53405;57.012;40.984;2023-03-20T06:47:00;100518.94;;;1.62;65.51
59391;BME280;53405;57.012;40.984;2023-03-20T06:49:29;100516.13;;;1.66;63.48
59391;BME280;53405;57.012;40.984;2023-03-20T06:51:56;100513.06;;;1.85;63.39
59391;BME280;53405;57.012;40.984;2023-03-20T06:54:26;100492.50;;;1.82;62.42
59391;BME280;53405;57.012;40.984;2023-03-20T06:56:54;100507.44;;;1.91;64.12
59391;BME280;53405;57.012;40.984;2023-03-20T06:59:21;100501.72;;;1.86;63.85
59391;BME280;53405;57.012;40.984;2023-03-20T07:01:54;100505.88;;;1.88;63.30
59391;BME280;53405;57.012;40.984;2023-03-20T07:04:22;100500.84;;;1.98;63.62
59391;BME280;53405;57.012;40.984;2023-03-20T07:06:53;100441.69;;;1.77;63.11
59391;BME280;53405;57.012;40.984;2023-03-20T07:09:20;100486.91;;;2.23;63.54
59391;BME280;53405;57.012;40.984;2023-03-20T07:11:48;100497.31;;;2.23;63.01
59391;BME280;53405;57.012;40.984;2023-03-20T07:14:15;100463.69;;;2.09;63.02
59391;BME280;53405;57.012;40.984;2023-03-20T07:17:02;100491.56;;;2.31;64.38
59391;BME280;53405;57.012;40.984;2023-03-20T07:19:32;100481.78;;;2.46;62.39
59391;BME280;53405;57.012;40.984;2023-03-20T07:22:01;100486.28;;;2.44;62.75
59391;BME280;53405;57.012;40.984;2023-03-20T07:24:36;100484.13;;;2.38;63.89
59391;BME280;53405;57.012;40.984;2023-03-20T07:27:04;100482.78;;;2.56;61.54
59391;BME280;53405;57.012;40.984;2023-03-20T07:29:33;100479.16;;;2.34;62.23
59391;BME280;53405;57.012;40.984;2023-03-20T07:32:03;100447.19;;;2.10;62.14
59391;BME280;53405;57.012;40.984;2023-03-20T07:34:35;100466.69;;;2.15;63.04
59391;BME280;53405;57.012;40.984;2023-03-20T07:37:04;100429.13;;;1.95;63.98
59391;BME280;53405;57.012;40.984;2023-03-20T07:39:33;100473.56;;;2.28;62.23
59391;BME280;53405;57.012;40.984;2023-03-20T07:42:20;100468.91;;;2.44;63.53
59391;BME280;53405;57.012;40.984;2023-03-20T07:44:57;100452.97;;;2.49;60.93
59391;BME280;53405;57.012;40.984;2023-03-20T07:47:25;100457.59;;;2.68;63.53
59391;BME280;53405;57.012;40.984;2023-03-20T07:49:52;100459.69;;;2.98;63.79
59391;BME280;53405;57.012;40.984;2023-03-20T07:52:19;100458.00;;;3.08;58.58
59391;BME280;53405;57.012;40.984;2023-03-20T07:54:46;100439.78;;;3.08;57.13
59391;BME280;53405;57.012;40.984;2023-03-20T07:57:14;100452.22;;;3.16;57.82
59391;BME280;53405;57.012;40.984;2023-03-20T07:59:41;100457.06;;;3.32;59.44
59391;BME280;53405;57.012;40.984;2023-03-20T08:02:16;100456.66;;;3.59;59.57
59391;BME280;53405;57.012;40.984;2023-03-20T08:04:44;100424.25;;;3.52;56.23
59391;BME280;53405;57.012;40.984;2023-03-20T08:07:12;100439.16;;;3.61;58.37
59391;BME280;53405;57.012;40.984;2023-03-20T08:09:39;100448.84;;;4.03;57.13
59391;BME280;53405;57.012;40.984;2023-03-20T08:12:07;100445.44;;;4.03;56.24
59391;BME280;53405;57.012;40.984;2023-03-20T08:14:34;100439.41;;;4.02;53.51
59391;BME280;53405;57.012;40.984;2023-03-20T08:17:01;100437.25;;;4.07;53.58
59391;BME280;53405;57.012;40.984;2023-03-20T08:19:40;100418.44;;;4.04;53.75
59391;BME280;53405;57.012;40.984;2023-03-20T08:22:08;100437.63;;;4.24;52.10
59391;BME280;53405;57.012;40.984;2023-03-20T08:24:35;100439.72;;;4.09;52.53
59391;BME280;53405;57.012;40.984;2023-03-20T08:27:02;100433.56;;;3.77;53.38
59391;BME280;53405;57.012;40.984;2023-03-20T08:29:30;100366.66;;;3.34;52.37
59391;BME280;53405;57.012;40.984;2023-03-20T08:31:57;100438.22;;;3.95;52.98
59391;BME280;53405;57.012;40.984;2023-03-20T08:34:25;100420.88;;;3.73;52.68
59391;BME280;53405;57.012;40.984;2023-03-20T08:36:53;100431.47;;;3.92;52.52
59391;BME280;53405;57.012;40.984;2023-03-20T08:39:20;100428.84;;;4.04;52.22
59391;BME280;53405;57.012;40.984;2023-03-20T08:41:47;100423.28;;;4.29;51.51
59391;BME280;53405;57.012;40.984;2023-03-20T08:44:15;100357.19;;;4.19;54.31
59391;BME280;53405;57.012;40.984;2023-03-20T08:46:42;100427.84;;;4.58;51.12
59391;BME280;53405;57.012;40.984;2023-03-20T08:49:12;100428.53;;;4.60;56.69
59391;BME280;53405;57.012;40.984;2023-03-20T08:51:39;100425.78;;;4.62;55.08
59391;BME280;53405;57.012;40.984;2023-03-20T08:54:07;100422.69;;;4.68;52.50
59391;BME280;53405;57.012;40.984;2023-03-20T08:56:34;100417.28;;;4.18;53.22
59391;BME280;53405;57.012;40.984;2023-03-20T08:59:01;100417.88;;;4.42;54.04
59391;BME280;53405;57.012;40.984;2023-03-20T09:01:29;100411.75;;;4.53;54.78
59391;BME280;53405;57.012;40.984;2023-03-20T09:04:13;100399.63;;;4.21;55.83
59391;BME280;53405;57.012;40.984;2023-03-20T09:06:41;100416.44;;;4.17;56.12
59391;BME280;53405;57.012;40.984;2023-03-20T09:09:08;100405.72;;;4.31;55.26
59391;BME280;53405;57.012;40.984;2023-03-20T09:11:35;100417.03;;;4.21;55.62
59391;BME280;53405;57.012;40.984;2023-03-20T09:14:03;100414.09;;;4.14;53.66
59391;BME280;53405;57.012;40.984;2023-03-20T09:16:31;100378.03;;;3.98;53.16
59391;BME280;53405;57.012;40.984;2023-03-20T09:18:59;100418.31;;;4.26;55.01
59391;BME280;53405;57.012;40.984;2023-03-20T09:21:27;100411.19;;;4.28;55.93
59391;BME280;53405;57.012;40.984;2023-03-20T09:23:54;100412.78;;;4.41;56.05
59391;BME280;53405;57.012;40.984;2023-03-20T09:26:24;100410.22;;;4.50;55.39
59391;BME280;53405;57.012;40.984;2023-03-20T09:28:54;100398.94;;;4.71;56.44
59391;BME280;53405;57.012;40.984;2023-03-20T09:31:22;100402.75;;;4.98;53.02
59391;BME280;53405;57.012;40.984;2023-03-20T09:33:49;100361.22;;;4.85;53.39
59391;BME280;53405;57.012;40.984;2023-03-20T09:36:17;100394.41;;;5.04;54.03
59391;BME280;53405;57.012;40.984;2023-03-20T09:38:44;100400.91;;;5.19;54.16
59391;BME280;53405;57.012;40.984;2023-03-20T09:41:16;100386.22;;;5.18;53.82
59391;BME280;53405;57.012;40.984;2023-03-20T09:46:45;100377.94;;;5.13;54.13
59391;BME280;53405;57.012;40.984;2023-03-20T09:52:19;100374.41;;;5.14;50.24
59391;BME280;53405;57.012;40.984;2023-03-20T09:54:52;100367.25;;;5.26;51.92
59391;BME280;53405;57.012;40.984;2023-03-20T09:57:26;100377.44;;;5.39;49.40
59391;BME280;53405;57.012;40.984;2023-03-20T09:59:59;100372.63;;;5.24;47.92
59391;BME280;53405;57.012;40.984;2023-03-20T10:05:58;100365.91;;;5.41;52.38
59391;BME280;53405;57.012;40.984;2023-03-20T10:08:32;100368.13;;;5.56;47.99
59391;BME280;53405;57.012;40.984;2023-03-20T10:16:16;100356.81;;;5.16;49.66
59391;BME280;53405;57.012;40.984;2023-03-20T10:19:15;100362.09;;;5.65;50.83
59391;BME280;53405;57.012;40.984;2023-03-20T10:21:48;100332.09;;;5.89;51.60
59391;BME280;53405;57.012;40.984;2023-03-20T10:24:28;100338.84;;;5.82;46.94
59391;BME280;53405;57.012;40.984;2023-03-20T10:27:03;100368.00;;;5.77;45.07
59391;BME280;53405;57.012;40.984;2023-03-20T10:32:35;100355.91;;;5.86;44.20
59391;BME280;53405;57.012;40.984;2023-03-20T10:40:29;100341.97;;;6.24;44.16
59391;BME280;53405;57.012;40.984;2023-03-20T10:43:05;100294.28;;;5.83;43.61
59391;BME280;53405;57.012;40.984;2023-03-20T10:45:40;100339.94;;;6.08;44.50
59391;BME280;53405;57.012;40.984;2023-03-20T10:48:19;100337.06;;;6.21;43.22
59391;BME280;53405;57.012;40.984;2023-03-20T10:50:55;100340.06;;;6.26;44.39
59391;BME280;53405;57.012;40.984;2023-03-20T10:53:30;100338.88;;;6.01;45.60
59391;BME280;53405;57.012;40.984;2023-03-20T10:56:02;100335.00;;;6.05;42.51
59391;BME280;53405;57.012;40.984;2023-03-20T10:58:34;100283.84;;;5.73;44.22
59391;BME280;53405;57.012;40.984;2023-03-20T11:01:03;100327.41;;;6.22;44.88
59391;BME280;53405;57.012;40.984;2023-03-20T11:03:31;100295.19;;;6.31;44.76
59391;BME280;53405;57.012;40.984;2023-03-20T11:06:08;100325.94;;;6.84;43.76
59391;BME280;53405;57.012;40.984;2023-03-20T11:08:41;100314.84;;;7.18;43.75
59391;BME280;53405;57.012;40.984;2023-03-20T11:11:09;100317.22;;;7.57;42.30
59391;BME280;53405;57.012;40.984;2023-03-20T11:13:43;100324.72;;;8.23;40.16
59391;BME280;53405;57.012;40.984;2023-03-20T11:16:18;100313.19;;;8.68;39.34
59391;BME280;53405;57.012;40.984;2023-03-20T11:18:47;100309.94;;;9.25;37.60
59391;BME280;53405;57.012;40.984;2023-03-20T11:21:27;100286.97;;;9.76;34.73
59391;BME280;53405;57.012;40.984;2023-03-20T11:23:55;100305.16;;;9.20;36.71
59391;BME280;53405;57.012;40.984;2023-03-20T11:26:39;100248.47;;;9.10;35.81
59391;BME280;53405;57.012;40.984;2023-03-20T11:29:19;100307.03;;;9.53;35.03
59391;BME280;53405;57.012;40.984;2023-03-20T11:31:49;100298.97;;;9.54;35.15
59391;BME280;53405;57.012;40.984;2023-03-20T11:34:22;100296.50;;;9.86;36.21
59391;BME280;53405;57.012;40.984;2023-03-20T11:36:56;100287.28;;;9.90;37.08
59391;BME280;53405;57.012;40.984;2023-03-20T11:39:35;100293.69;;;9.38;37.99
59391;BME280;53405;57.012;40.984;2023-03-20T11:42:22;100283.63;;;10.07;36.19
59391;BME280;53405;57.012;40.984;2023-03-20T11:45:00;100295.19;;;10.62;32.57
59391;BME280;53405;57.012;40.984;2023-03-20T11:47:32;100293.53;;;11.01;33.23
59391;BME280;53405;57.012;40.984;2023-03-20T11:50:04;100289.78;;;10.56;33.84
59391;BME280;53405;57.012;40.984;2023-03-20T11:52:34;100284.22;;;10.90;34.42
59391;BME280;53405;57.012;40.984;2023-03-20T11:55:06;100247.09;;;10.77;34.76
59391;BME280;53405;57.012;40.984;2023-03-20T11:57:40;100260.72;;;10.33;35.67
59391;BME280;53405;57.012;40.984;2023-03-20T12:00:15;100264.09;;;10.66;34.49
59391;BME280;53405;57.012;40.984;2023-03-20T12:02:43;100265.53;;;11.00;34.35
59391;BME280;53405;57.012;40.984;2023-03-20T12:05:30;100215.66;;;11.21;33.74
59391;BME280;53405;57.012;40.984;2023-03-20T12:08:20;100260.22;;;11.08;36.14
59391;BME280;53405;57.012;40.984;2023-03-20T12:13:43;100244.88;;;10.01;36.62
59391;BME280;53405;57.012;40.984;2023-03-20T12:16:17;100241.88;;;10.12;36.78
59391;BME280;53405;57.012;40.984;2023-03-20T12:18:51;100238.94;;;9.99;38.87
59391;BME280;53405;57.012;40.984;2023-03-20T12:24:36;100240.81;;;10.38;34.14
59391;BME280;53405;57.012;40.984;2023-03-20T12:30:00;100229.78;;;9.62;36.31
59391;BME280;53405;57.012;40.984;2023-03-20T12:32:45;100192.47;;;9.58;40.60
59391;BME280;53405;57.012;40.984;2023-03-20T12:35:31;100173.59;;;9.55;35.61
59391;BME280;53405;57.012;40.984;2023-03-20T12:38:00;100223.03;;;9.59;35.88
59391;BME280;53405;57.012;40.984;2023-03-20T12:40:41;100213.97;;;9.79;34.09
59391;BME280;53405;57.012;40.984;2023-03-20T12:43:17;100219.25;;;9.79;37.21
59391;BME280;53405;57.012;40.984;2023-03-20T12:46:35;100218.47;;;9.29;37.10
59391;BME280;53405;57.012;40.984;2023-03-20T12:49:11;100213.22;;;9.29;36.25
59391;BME280;53405;57.012;40.984;2023-03-20T12:52:13;100208.94;;;9.19;36.12
59391;BME280;53405;57.012;40.984;2023-03-20T12:57:31;100199.81;;;8.73;38.19
59391;BME280;53405;57.012;40.984;2023-03-20T13:10:20;100196.31;;;8.13;33.96
59391;BME280;53405;57.012;40.984;2023-03-20T13:14:01;100188.53;;;7.95;34.06
59391;BME280;53405;57.012;40.984;2023-03-20T13:21:30;100167.41;;;8.05;36.53
59391;BME280;53405;57.012;40.984;2023-03-20T13:37:40;100154.63;;;8.02;36.98
59391;BME280;53405;57.012;40.984;2023-03-20T13:40:32;100120.50;;;7.93;36.47
59391;BME280;53405;57.012;40.984;2023-03-20T13:43:39;100168.22;;;8.05;35.19
59391;BME280;53405;57.012;40.984;2023-03-20T13:46:10;100157.53;;;8.41;33.87
59391;BME280;53405;57.012;40.984;2023-03-20T13:48:42;100161.25;;;8.73;33.41
59391;BME280;53405;57.012;40.984;2023-03-20T13:54:14;100156.00;;;8.65;33.67
59391;BME280;53405;57.012;40.984;2023-03-20T13:59:57;100151.63;;;8.31;36.55
59391;BME280;53405;57.012;40.984;2023-03-20T14:05:36;100148.03;;;8.40;36.86
59391;BME280;53405;57.012;40.984;2023-03-20T14:11:13;100148.16;;;7.88;33.83
59391;BME280;53405;57.012;40.984;2023-03-20T14:13:45;100130.16;;;7.58;32.34
59391;BME280;53405;57.012;40.984;2023-03-20T14:16:16;100102.03;;;7.16;35.48
59391;BME280;53405;57.012;40.984;2023-03-20T14:18:57;100128.09;;;6.82;36.51
59391;BME280;53405;57.012;40.984;2023-03-20T14:21:30;100140.00;;;6.58;36.93
59391;BME280;53405;57.012;40.984;2023-03-20T14:24:03;100145.06;;;6.42;37.14
59391;BME280;53405;57.012;40.984;2023-03-20T14:26:39;100147.53;;;6.61;36.02
59391;BME280;53405;57.012;40.984;2023-03-20T14:31:38;100136.00;;;6.54;35.13
59391;BME280;53405;57.012;40.984;2023-03-20T14:34:18;100135.28;;;6.44;37.88
59391;BME280;53405;57.012;40.984;2023-03-20T14:39:49;100135.78;;;6.29;39.70
59391;BME280;53405;57.012;40.984;2023-03-20T14:51:19;100099.25;;;6.10;40.10
59391;BME280;53405;57.012;40.984;2023-03-20T14:54:42;100122.13;;;6.08;42.31
59391;BME280;53405;57.012;40.984;2023-03-20T14:56:44;100131.31;;;6.12;41.68
59391;BME280;53405;57.012;40.984;2023-03-20T14:59:13;100124.22;;;5.94;44.33
59391;BME280;53405;57.012;40.984;2023-03-20T15:02:20;100127.78;;;5.93;42.23
59391;BME280;53405;57.012;40.984;2023-03-20T15:04:48;100097.06;;;5.77;41.51
59391;BME280;53405;57.012;40.984;2023-03-20T15:07:25;100123.31;;;5.76;43.69
59391;BME280;53405;57.012;40.984;2023-03-20T15:09:58;100110.78;;;5.79;44.26
59391;BME280;53405;57.012;40.984;2023-03-20T15:12:29;100108.06;;;5.71;45.11
59391;BME280;53405;57.012;40.984;2023-03-20T15:15:00;100128.16;;;5.71;41.38
59391;BME280;53405;57.012;40.984;2023-03-20T15:17:55;100105.47;;;5.71;43.02
59391;BME280;53405;57.012;40.984;2023-03-20T15:20:24;100112.16;;;5.84;42.31
59391;BME280;53405;57.012;40.984;2023-03-20T15:22:59;100094.72;;;5.74;42.45